Time;durP1;ratioP1;P1;durP2;ratioP2;P2;SDS_P1;SDS_P2;PMS_P1;PMS_P2;Temp;Humidity;BMP_temperature;BMP_pressure;BME280_temperature;BME280_humidity;BME280_pressure;Samples;Min_cycle;Max_cycle;Signal;HPM_P1;HPM_P2
2021/10/07 00:01:54;;;;;;;3.53;2.43;;;;;;;6.64;nan;101704.34;4960592;28;20536;-82
2021/10/07 00:04:21;;;;;;;2.30;2.00;;;;;;;6.61;nan;101705.22;4972023;28;20034;-81
2021/10/07 00:06:48;;;;;;;2.57;2.27;;;;;;;6.62;nan;101699.09;4951319;28;20061;-81
2021/10/07 00:09:15;;;;;;;2.97;2.20;;;;;;;6.59;nan;101708.69;4942073;28;20074;-82
2021/10/07 00:11:42;;;;;;;3.00;2.20;;;;;;;6.56;nan;101711.25;4959970;28;20042;-81
2021/10/07 00:14:09;;;;;;;5.47;2.90;;;;;;;6.49;nan;101721.69;4951712;28;20038;-82
2021/10/07 00:16:36;;;;;;;2.70;2.23;;;;;;;6.45;nan;101719.88;4947174;28;20061;-81
2021/10/07 00:19:03;;;;;;;3.63;2.20;;;;;;;6.41;nan;101719.84;4956640;28;20038;-81
2021/10/07 00:21:30;;;;;;;4.23;2.30;;;;;;;6.41;nan;101712.84;4949412;28;20046;-81
2021/10/07 00:26:24;;;;;;;2.90;2.33;;;;;;;6.44;nan;101722.50;4957978;28;20042;-82
2021/10/07 00:28:54;;;;;;;3.37;2.50;;;;;;;6.45;nan;101719.88;4980432;28;20121;-81
2021/10/07 00:31:23;;;;;;;3.90;2.77;;;;;;;6.31;nan;101718.84;4962876;28;20070;-81
2021/10/07 00:34:07;;;;;;;3.77;2.67;;;;;;;6.28;nan;101721.38;4947354;28;20478;-81
2021/10/07 00:36:58;;;;;;;3.00;2.40;;;;;;;6.35;nan;101722.38;4960387;28;20125;-81
2021/10/07 00:39:25;;;;;;;6.43;3.43;;;;;;;6.25;nan;101734.47;4947387;28;20495;-81
2021/10/07 00:41:52;;;;;;;4.97;2.30;;;;;;;6.28;nan;101734.50;4964259;28;20414;-81
2021/10/07 00:44:19;;;;;;;5.83;3.23;;;;;;;6.20;nan;101733.53;4945611;28;20049;-81
2021/10/07 00:46:53;;;;;;;3.97;2.50;;;;;;;6.19;nan;101743.13;4980725;28;20439;-82
2021/10/07 00:49:21;;;;;;;3.10;2.72;;;;;;;6.23;nan;101737.94;4956762;28;20113;-83
2021/10/07 00:51:49;;;;;;;3.70;2.67;;;;;;;6.17;nan;101744.88;4962572;28;20486;-81
2021/10/07 00:54:17;;;;;;;3.47;2.80;;;;;;;6.14;nan;101744.81;4956519;28;20051;-81
2021/10/07 00:56:45;;;;;;;3.53;2.70;;;;;;;6.16;nan;101745.72;4940168;28;20042;-81
2021/10/07 00:59:12;;;;;;;4.33;2.70;;;;;;;6.16;nan;101747.47;4958056;28;20050;-81
2021/10/07 01:01:41;;;;;;;4.10;2.50;;;;;;;6.09;nan;101751.72;4953806;28;20070;-81
2021/10/07 01:04:08;;;;;;;4.67;2.40;;;;;;;6.15;nan;101750.97;4948515;28;20042;-81
2021/10/07 01:06:35;;;;;;;4.20;2.50;;;;;;;6.04;nan;101755.13;4957044;28;20500;-82
2021/10/07 01:09:04;;;;;;;3.97;2.60;;;;;;;6.00;nan;101754.22;4937659;28;20057;-82
2021/10/07 01:11:32;;;;;;;4.50;2.50;;;;;;;5.95;nan;101761.13;4957935;28;20499;-81
2021/10/07 01:13:59;;;;;;;6.20;2.90;;;;;;;5.83;nan;101753.03;4957673;28;20415;-83
2021/10/07 01:16:26;;;;;;;4.50;2.50;;;;;;;5.84;nan;101765.28;4965417;28;20042;-80
2021/10/07 01:18:55;;;;;;;4.20;2.30;;;;;;;5.85;nan;101761.81;4939801;28;20130;-81
2021/10/07 01:21:21;;;;;;;3.77;2.40;;;;;;;5.77;nan;101769.53;4957270;28;20050;-82
2021/10/07 01:23:49;;;;;;;2.57;2.13;;;;;;;5.73;nan;101766.84;4953987;28;20049;-82
2021/10/07 01:26:19;;;;;;;3.67;2.60;;;;;;;5.73;nan;101777.34;4949517;28;20046;-81
2021/10/07 01:28:48;;;;;;;4.67;2.50;;;;;;;5.76;nan;101772.13;4938778;28;20035;-81
2021/10/07 01:31:14;;;;;;;2.67;2.37;;;;;;;5.78;nan;101776.53;4962770;28;20057;-81
2021/10/07 01:33:41;;;;;;;4.53;2.83;;;;;;;5.73;nan;101783.47;4963443;28;20050;-81
2021/10/07 01:36:08;;;;;;;3.10;2.57;;;;;;;5.65;nan;101779.81;4957154;28;20038;-81
2021/10/07 01:38:35;;;;;;;5.33;2.50;;;;;;;5.60;nan;101776.22;4936648;28;20042;-83
2021/10/07 01:41:02;;;;;;;5.43;2.70;;;;;;;5.62;nan;101775.38;4971103;28;20088;-81
2021/10/07 01:43:29;;;;;;;3.43;2.90;;;;;;;5.60;nan;101771.00;4962501;28;20050;-81
2021/10/07 01:45:55;;;;;;;2.97;2.50;;;;;;;5.54;nan;101774.38;4952887;28;20039;-82
2021/10/07 01:48:22;;;;;;;5.63;2.90;;;;;;;5.50;nan;101774.31;4959229;28;20456;-81
2021/10/07 01:50:49;;;;;;;4.97;2.73;;;;;;;5.47;nan;101772.53;4950013;28;20566;-81
2021/10/07 01:53:16;;;;;;;4.27;2.43;;;;;;;5.51;nan;101778.69;4945168;28;20066;-81
2021/10/07 01:55:42;;;;;;;4.17;2.77;;;;;;;5.50;nan;101782.16;4965304;28;20065;-81
2021/10/07 01:58:09;;;;;;;3.37;2.43;;;;;;;5.45;nan;101786.44;4957706;28;20085;-81
2021/10/07 02:00:36;;;;;;;3.47;2.97;;;;;;;5.43;nan;101786.41;4963268;28;20097;-81
2021/10/07 02:03:04;;;;;;;3.07;2.40;;;;;;;5.36;nan;101785.41;4968773;28;20042;-81
2021/10/07 02:05:31;;;;;;;3.73;2.53;;;;;;;5.38;nan;101782.81;4976596;28;20069;-81
2021/10/07 02:07:59;;;;;;;3.90;2.73;;;;;;;5.42;nan;101791.63;4975613;28;20048;-81
2021/10/07 02:10:27;;;;;;;4.13;2.73;;;;;;;5.47;nan;101785.63;4969335;28;20046;-81
2021/10/07 02:12:55;;;;;;;2.97;2.30;;;;;;;5.42;nan;101795.13;4974658;28;20060;-81
2021/10/07 02:15:23;;;;;;;4.10;2.67;;;;;;;5.41;nan;101796.00;4957622;28;20145;-81
2021/10/07 02:17:53;;;;;;;3.50;2.43;;;;;;;5.37;nan;101784.53;4964229;28;20108;-81
2021/10/07 02:20:20;;;;;;;3.40;2.37;;;;;;;5.30;nan;101794.91;4968333;28;20073;-81
2021/10/07 02:22:47;;;;;;;3.57;2.27;;;;;;;5.27;nan;101798.34;4953920;28;20452;-81
2021/10/07 02:25:15;;;;;;;5.20;3.00;;;;;;;5.28;nan;101796.59;4974429;28;20045;-81
2021/10/07 02:27:42;;;;;;;3.07;2.77;;;;;;;5.16;nan;101799.88;4979436;28;20038;-81
2021/10/07 02:30:12;;;;;;;3.33;2.73;;;;;;;4.94;nan;101797.66;4958594;28;20137;-81
2021/10/07 02:32:39;;;;;;;3.67;2.70;;;;;;;5.03;nan;101801.34;4969102;28;20045;-81
2021/10/07 02:35:07;;;;;;;2.60;2.30;;;;;;;5.01;nan;101808.28;4975816;28;20057;-80
2021/10/07 02:37:35;;;;;;;4.27;2.83;;;;;;;5.00;nan;101803.91;4978500;28;20053;-81
2021/10/07 02:40:03;;;;;;;4.40;3.43;;;;;;;5.02;nan;101809.19;4969585;28;20042;-81
2021/10/07 02:42:30;;;;;;;5.70;2.77;;;;;;;5.01;nan;101820.50;4961591;28;20038;-80
2021/10/07 02:44:58;;;;;;;2.83;2.50;;;;;;;4.99;nan;101814.38;4951691;28;20042;-81
2021/10/07 02:47:25;;;;;;;3.30;2.47;;;;;;;4.92;nan;101821.19;4974159;28;20042;-81
2021/10/07 02:49:52;;;;;;;5.03;2.50;;;;;;;4.91;nan;101824.69;4972105;28;20050;-81
2021/10/07 02:52:19;;;;;;;3.57;2.63;;;;;;;4.89;nan;101838.59;4951172;28;20109;-81
2021/10/07 02:54:46;;;;;;;2.60;2.40;;;;;;;4.84;nan;101835.88;4947438;28;20039;-81
2021/10/07 02:57:15;;;;;;;3.57;2.30;;;;;;;4.80;nan;101837.53;4965187;28;20125;-81
2021/10/07 02:59:43;;;;;;;3.33;2.77;;;;;;;4.78;nan;101839.22;4948133;28;20505;-81
2021/10/07 03:02:10;;;;;;;8.03;3.97;;;;;;;4.76;nan;101845.28;4947658;28;20057;-81
2021/10/07 03:04:37;;;;;;;4.67;2.50;;;;;;;4.73;nan;101837.38;4952161;28;20089;-81
2021/10/07 03:07:04;;;;;;;3.60;2.70;;;;;;;4.72;nan;101846.97;4948628;28;20129;-81
2021/10/07 03:09:31;;;;;;;5.30;3.00;;;;;;;4.73;nan;101850.47;4965775;28;20051;-81
2021/10/07 03:11:58;;;;;;;4.07;2.40;;;;;;;4.73;nan;101850.47;4947464;28;20089;-81
2021/10/07 03:14:25;;;;;;;2.80;2.37;;;;;;;4.76;nan;101850.53;4963715;28;20099;-81
2021/10/07 03:16:52;;;;;;;4.30;2.73;;;;;;;4.78;nan;101854.03;4946853;28;20050;-81
2021/10/07 03:19:19;;;;;;;3.93;2.67;;;;;;;4.71;nan;101857.41;4946953;28;20038;-80
2021/10/07 03:21:46;;;;;;;4.93;2.50;;;;;;;4.63;nan;101854.63;4945327;28;20141;-81
2021/10/07 03:24:13;;;;;;;3.03;2.50;;;;;;;4.58;nan;101861.47;4949052;28;20038;-81
2021/10/07 03:26:40;;;;;;;2.97;2.30;;;;;;;4.58;nan;101863.19;4948585;28;20137;-81
2021/10/07 03:29:07;;;;;;;6.10;3.47;;;;;;;4.57;nan;101859.69;4937433;28;20125;-81
2021/10/07 03:31:34;;;;;;;2.67;2.30;;;;;;;4.55;nan;101866.63;4949560;28;20046;-83
2021/10/07 03:34:01;;;;;;;4.63;2.40;;;;;;;4.52;nan;101870.03;4945100;28;20531;-82
2021/10/07 03:36:31;;;;;;;4.10;3.20;;;;;;;4.51;nan;101873.50;4962677;28;20454;-82
2021/10/07 03:39:01;;;;;;;2.97;2.67;;;;;;;4.47;nan;101878.66;4948388;28;20042;-81
2021/10/07 03:41:27;;;;;;;3.07;2.67;;;;;;;4.41;nan;101878.50;4962377;28;20496;-81
2021/10/07 03:43:55;;;;;;;3.63;2.27;;;;;;;4.40;nan;101877.63;4945861;28;20723;-81
2021/10/07 03:46:22;;;;;;;4.73;2.57;;;;;;;4.38;nan;101883.66;4976807;28;20038;-83
2021/10/07 03:48:49;;;;;;;2.90;2.30;;;;;;;4.33;nan;101886.16;4957307;28;20046;-82
2021/10/07 03:51:16;;;;;;;2.77;2.40;;;;;;;4.32;nan;101894.84;4943789;28;20050;-83
2021/10/07 03:53:42;;;;;;;6.17;2.57;;;;;;;4.34;nan;101893.16;4943041;28;20046;-82
2021/10/07 03:56:09;;;;;;;3.70;2.57;;;;;;;4.27;nan;101900.81;4959067;28;20057;-82
2021/10/07 03:58:36;;;;;;;3.53;2.67;;;;;;;4.20;nan;101902.38;4956756;28;20646;-82
2021/10/07 04:01:03;;;;;;;3.97;2.97;;;;;;;4.14;nan;101904.88;4942531;28;20594;-83
2021/10/07 04:03:30;;;;;;;3.23;2.53;;;;;;;4.11;nan;101905.66;4941831;28;20049;-83
2021/10/07 04:05:57;;;;;;;4.57;2.40;;;;;;;4.14;nan;101897.00;4960077;28;20042;-82
2021/10/07 04:08:28;;;;;;;2.87;2.30;;;;;;;4.16;nan;101900.53;4957018;28;20042;-82
2021/10/07 04:10:55;;;;;;;5.43;2.67;;;;;;;4.15;nan;101901.41;4957799;28;20042;-82
2021/10/07 04:13:23;;;;;;;3.20;2.40;;;;;;;4.13;nan;101901.38;4956602;28;20061;-82
2021/10/07 04:15:50;;;;;;;5.97;2.53;;;;;;;4.11;nan;101905.66;4958278;28;20046;-82
2021/10/07 04:18:18;;;;;;;2.50;2.30;;;;;;;4.14;nan;101904.88;4946593;28;20081;-82
2021/10/07 04:20:46;;;;;;;4.10;2.70;;;;;;;4.16;nan;101909.28;4945227;28;20088;-83
2021/10/07 04:23:14;;;;;;;3.70;2.53;;;;;;;4.09;nan;101907.34;4957389;28;20527;-82
2021/10/07 04:25:41;;;;;;;4.30;2.63;;;;;;;4.03;nan;101906.28;4942226;28;20463;-81
2021/10/07 04:28:08;;;;;;;3.97;2.37;;;;;;;4.02;nan;101917.59;4955388;28;20524;-82
2021/10/07 04:30:36;;;;;;;3.10;2.77;;;;;;;3.98;nan;101928.84;4974324;23;20136;-83
2021/10/07 04:33:09;;;;;;;2.60;2.20;;;;;;;3.95;nan;101933.16;4956646;28;20432;-83
2021/10/07 04:35:37;;;;;;;4.17;2.40;;;;;;;3.91;nan;101928.66;4942274;28;20499;-84
2021/10/07 04:38:04;;;;;;;2.77;2.47;;;;;;;3.85;nan;101941.56;4957264;28;20132;-84
2021/10/07 04:40:31;;;;;;;3.23;2.40;;;;;;;3.80;nan;101940.56;4964029;28;20116;-83
2021/10/07 04:42:58;;;;;;;4.53;2.53;;;;;;;3.79;nan;101949.25;4975423;28;20038;-83
2021/10/07 04:45:25;;;;;;;5.10;2.40;;;;;;;3.77;nan;101947.44;4959021;28;20499;-83
2021/10/07 04:47:52;;;;;;;3.90;2.30;;;;;;;3.72;nan;101952.53;4972401;28;20129;-83
2021/10/07 04:50:19;;;;;;;4.73;2.70;;;;;;;3.75;nan;101955.22;4997426;28;20515;-84
2021/10/07 04:52:46;;;;;;;3.40;2.37;;;;;;;3.77;nan;101956.16;4964657;28;20053;-83
2021/10/07 04:55:13;;;;;;;2.63;2.30;;;;;;;3.76;nan;101958.72;4964674;28;20511;-84
2021/10/07 04:57:40;;;;;;;5.93;2.80;;;;;;;3.77;nan;101960.50;4972275;28;20041;-83
2021/10/07 05:00:07;;;;;;;3.30;2.73;;;;;;;3.82;nan;101967.63;4971946;28;20337;-83
2021/10/07 05:02:40;;;;;;;3.67;2.73;;;;;;;3.77;nan;101973.56;4970915;28;20158;-83
2021/10/07 05:05:09;;;;;;;3.33;2.20;;;;;;;3.71;nan;101976.91;4974539;28;20061;-83
2021/10/07 05:07:38;;;;;;;3.67;2.60;;;;;;;3.66;nan;101981.09;4959073;28;20038;-83
2021/10/07 05:10:11;;;;;;;3.60;2.20;;;;;;;3.73;nan;101988.28;4991399;28;20088;-84
2021/10/07 05:12:39;;;;;;;4.10;2.77;;;;;;;3.78;nan;101993.63;4958754;28;20041;-84
2021/10/07 05:15:08;;;;;;;4.33;2.63;;;;;;;3.68;nan;101995.97;4960633;28;20077;-83
2021/10/07 05:17:35;;;;;;;3.03;2.37;;;;;;;3.59;nan;101990.50;4989126;28;20045;-83
2021/10/07 05:20:06;;;;;;;2.70;2.50;;;;;;;3.57;nan;101994.78;4970101;28;20073;-83
2021/10/07 05:22:34;;;;;;;5.03;2.40;;;;;;;3.57;nan;102002.63;4974968;28;20038;-84
2021/10/07 05:25:00;;;;;;;4.17;2.27;;;;;;;3.55;nan;102001.72;4971470;28;20046;-83
2021/10/07 05:27:27;;;;;;;3.03;2.10;;;;;;;3.51;nan;101997.22;4959766;28;20076;-84
2021/10/07 05:29:54;;;;;;;3.93;2.40;;;;;;;3.42;nan;101996.06;4976716;28;20050;-83
2021/10/07 05:32:21;;;;;;;3.40;2.50;;;;;;;3.47;nan;102015.38;4965267;28;20100;-84
2021/10/07 05:34:47;;;;;;;3.37;2.50;;;;;;;3.49;nan;102008.47;4966836;28;20129;-84
2021/10/07 05:37:17;;;;;;;3.60;2.30;;;;;;;3.48;nan;102004.97;4958755;28;20049;-84
2021/10/07 05:39:44;;;;;;;4.13;2.60;;;;;;;3.50;nan;102013.75;4959463;28;20052;-85
2021/10/07 05:42:11;;;;;;;4.17;2.87;;;;;;;3.51;nan;102010.28;4987060;28;20054;-84
2021/10/07 05:44:38;;;;;;;4.27;2.57;;;;;;;3.68;nan;102016.00;4971251;28;20042;-84
2021/10/07 05:47:05;;;;;;;2.90;2.60;;;;;;;3.70;nan;102016.97;4957872;28;20077;-84
2021/10/07 05:49:31;;;;;;;2.80;2.50;;;;;;;3.68;nan;102016.88;4991906;28;20046;-84
2021/10/07 05:51:58;;;;;;;3.50;2.30;;;;;;;3.69;nan;102015.16;4974908;28;20050;-84
2021/10/07 05:54:25;;;;;;;3.57;2.40;;;;;;;3.64;nan;102027.22;4976320;28;20065;-84
2021/10/07 05:56:52;;;;;;;3.97;2.77;;;;;;;3.71;nan;102023.97;4975218;28;20048;-84
2021/10/07 05:59:18;;;;;;;5.83;3.10;;;;;;;3.76;nan;102024.06;4991281;28;20108;-85
2021/10/07 06:01:45;;;;;;;4.00;2.87;;;;;;;3.80;nan;102031.19;4970515;28;20096;-84
2021/10/07 06:04:12;;;;;;;3.93;2.47;;;;;;;3.80;nan;102033.78;4984717;28;20042;-84
2021/10/07 06:06:39;;;;;;;4.20;3.13;;;;;;;3.83;nan;102034.75;4984698;28;20038;-84
2021/10/07 06:09:07;;;;;;;5.73;3.00;;;;;;;3.93;nan;102036.78;4971038;28;20096;-84
2021/10/07 06:11:36;;;;;;;6.00;3.30;;;;;;;3.99;nan;102046.53;4957180;28;20598;-84
2021/10/07 06:14:04;;;;;;;4.10;2.50;;;;;;;4.06;nan;102035.41;4957512;28;20046;-84
2021/10/07 06:16:33;;;;;;;5.90;3.00;;;;;;;4.01;nan;102042.22;4988666;28;20577;-84
2021/10/07 06:19:03;;;;;;;4.93;3.17;;;;;;;4.06;nan;102048.50;4956724;28;20062;-85
2021/10/07 06:21:30;;;;;;;4.70;3.23;;;;;;;4.11;nan;102053.84;4976657;28;20050;-86
2021/10/07 06:23:57;;;;;;;5.50;3.10;;;;;;;4.16;nan;102060.09;4974972;28;20038;-84
2021/10/07 06:26:37;;;;;;;4.33;3.33;;;;;;;4.26;nan;102061.22;4976469;28;20112;-83
2021/10/07 06:29:03;;;;;;;3.80;2.63;;;;;;;4.32;nan;102057.06;4980483;28;20077;-84
2021/10/07 06:31:30;;;;;;;7.43;3.10;;;;;;;4.33;nan;102056.22;4993879;28;20048;-85
2021/10/07 06:33:57;;;;;;;4.30;3.10;;;;;;;4.37;nan;102063.31;4991776;28;20406;-84
2021/10/07 06:36:24;;;;;;;5.27;3.13;;;;;;;4.40;nan;102060.78;4982682;28;20623;-84
2021/10/07 06:38:51;;;;;;;3.90;3.10;;;;;;;4.42;nan;102071.28;4990603;28;20047;-84
2021/10/07 06:41:18;;;;;;;4.73;3.13;;;;;;;4.42;nan;102066.03;4974975;28;20108;-83
2021/10/07 06:43:45;;;;;;;5.43;3.10;;;;;;;4.38;nan;102070.31;4993296;28;20080;-83
2021/10/07 06:46:12;;;;;;;4.00;3.03;;;;;;;4.44;nan;102073.06;4963931;28;20101;-84
2021/10/07 06:48:39;;;;;;;5.57;3.30;;;;;;;4.48;nan;102074.06;4971178;28;20030;-84
2021/10/07 06:51:09;;;;;;;4.33;3.33;;;;;;;4.47;nan;102067.06;4994606;28;20041;-83
2021/10/07 06:53:39;;;;;;;4.23;3.27;;;;;;;4.50;nan;102077.59;4983871;28;20450;-83
2021/10/07 06:56:06;;;;;;;3.93;3.30;;;;;;;4.52;nan;102066.31;4971104;28;20579;-83
2021/10/07 06:58:33;;;;;;;4.50;3.20;;;;;;;4.56;nan;102076.91;4974137;28;20446;-84
2021/10/07 07:01:00;;;;;;;6.43;2.97;;;;;;;4.59;nan;102076.97;4972878;28;20046;-84
2021/10/07 07:03:27;;;;;;;5.43;3.20;;;;;;;4.60;nan;102079.63;4970882;28;20050;-84
2021/10/07 07:05:53;;;;;;;5.90;3.70;;;;;;;4.62;nan;102080.53;5002827;28;20053;-83
2021/10/07 07:08:20;;;;;;;6.17;3.63;;;;;;;4.72;nan;102086.94;4976911;28;20042;-83
2021/10/07 07:10:48;;;;;;;7.10;3.60;;;;;;;4.80;nan;102082.78;4994939;28;20069;-84
2021/10/07 07:13:16;;;;;;;5.37;3.37;;;;;;;4.84;nan;102084.63;4993554;28;20054;-83
2021/10/07 07:15:43;;;;;;;7.10;3.73;;;;;;;4.87;nan;102083.78;4994930;28;20053;-83
2021/10/07 07:18:10;;;;;;;5.00;3.27;;;;;;;4.89;nan;102093.47;4977207;28;20392;-84
2021/10/07 07:20:36;;;;;;;4.57;3.30;;;;;;;4.99;nan;102086.75;4973608;28;20452;-83
2021/10/07 07:23:08;;;;;;;4.67;3.57;;;;;;;5.06;nan;102097.41;4972797;28;20042;-84
2021/10/07 07:25:35;;;;;;;4.33;3.93;;;;;;;5.09;nan;102086.13;4976453;28;20061;-84
2021/10/07 07:28:02;;;;;;;4.00;3.33;;;;;;;5.23;nan;102092.59;4957362;28;20042;-83
2021/10/07 07:30:29;;;;;;;4.23;3.47;;;;;;;5.43;nan;102098.28;4988449;28;20631;-84
2021/10/07 07:32:56;;;;;;;4.77;3.77;;;;;;;5.61;nan;102097.81;4961271;28;20168;-84
2021/10/07 07:35:23;;;;;;;5.53;3.00;;;;;;;5.78;nan;102100.84;4962111;28;20067;-83
2021/10/07 07:37:49;;;;;;;4.37;2.77;;;;;;;5.93;nan;102102.09;4976820;28;20041;-84
2021/10/07 07:40:16;;;;;;;4.63;3.00;;;;;;;6.07;nan;102102.41;4969105;28;20545;-83
2021/10/07 07:42:46;;;;;;;3.97;3.53;;;;;;;6.17;nan;102111.34;4968684;28;20046;-84
2021/10/07 07:45:13;;;;;;;4.33;3.03;;;;;;;6.26;nan;102113.25;4978229;28;20095;-83
2021/10/07 07:47:57;;;;;;;4.83;3.00;;;;;;;6.32;nan;102119.53;4973279;28;20050;-83
2021/10/07 07:50:27;;;;;;;3.53;2.83;;;;;;;6.39;nan;102120.50;4983110;28;20049;-84
2021/10/07 07:52:54;;;;;;;4.60;3.00;;;;;;;6.50;nan;102116.38;5003990;28;20289;-83
2021/10/07 07:55:21;;;;;;;4.43;3.60;;;;;;;6.59;nan;102119.19;4992932;28;20052;-84
2021/10/07 07:57:48;;;;;;;4.57;3.40;;;;;;;6.73;nan;102132.59;4957258;28;20074;-83
2021/10/07 08:00:15;;;;;;;3.53;3.23;;;;;;;6.85;nan;102116.16;4966601;28;20046;-84
2021/10/07 08:02:42;;;;;;;4.53;3.30;;;;;;;6.98;nan;102120.78;4981691;28;20145;-84
2021/10/07 08:05:10;;;;;;;4.70;3.33;;;;;;;7.06;nan;102124.41;4964967;28;20115;-84
2021/10/07 08:07:37;;;;;;;3.50;3.17;;;;;;;7.20;nan;102125.53;4991841;28;20042;-84
2021/10/07 08:10:04;;;;;;;4.63;3.87;;;;;;;7.30;nan;102129.19;4968299;28;20089;-84
2021/10/07 08:12:33;;;;;;;4.63;3.67;;;;;;;7.44;nan;102121.53;4969874;28;20089;-84
2021/10/07 08:15:01;;;;;;;6.57;4.93;;;;;;;7.60;nan;102132.31;4977462;28;20046;-84
2021/10/07 08:17:28;;;;;;;5.00;4.20;;;;;;;7.73;nan;102125.47;4976090;28;20041;-84
2021/10/07 08:19:55;;;;;;;4.70;4.10;;;;;;;7.86;nan;102123.91;4960455;28;20045;-84
2021/10/07 08:22:23;;;;;;;4.70;3.60;;;;;;;7.97;nan;102129.31;4975630;28;20038;-85
2021/10/07 08:24:49;;;;;;;4.45;4.05;;;;;;;8.08;nan;102127.75;4957774;28;20042;-83
2021/10/07 08:27:18;;;;;;;7.03;5.00;;;;;;;8.19;nan;102121.72;4963935;28;20133;-83
2021/10/07 08:29:45;;;;;;;12.40;8.70;;;;;;;8.52;nan;102135.34;4972557;28;20116;-84
2021/10/07 08:32:12;;;;;;;11.98;7.35;;;;;;;8.64;nan;102130.19;4972592;28;20715;-83
2021/10/07 08:34:39;;;;;;;9.02;6.35;;;;;;;8.71;nan;102134.66;4941953;28;20082;-84
2021/10/07 08:37:06;;;;;;;6.50;5.63;;;;;;;8.85;nan;102140.09;4972302;28;20128;-84
2021/10/07 08:39:33;;;;;;;6.53;4.90;;;;;;;8.96;nan;102144.59;4960261;28;20099;-84
2021/10/07 08:42:00;;;;;;;10.15;6.13;;;;;;;9.25;nan;102144.88;4968367;28;20057;-84
2021/10/07 08:44:27;;;;;;;8.55;5.15;;;;;;;9.37;nan;102148.47;4957462;28;20101;-83
2021/10/07 08:46:54;;;;;;;7.53;5.28;;;;;;;9.50;nan;102142.41;5001621;28;20465;-84
2021/10/07 08:49:23;;;;;;;6.60;5.28;;;;;;;9.67;nan;102151.34;4976270;28;20054;-84
2021/10/07 08:51:51;;;;;;;4.93;4.30;;;;;;;9.85;nan;102150.59;4991545;28;20050;-84
2021/10/07 08:54:18;;;;;;;6.10;4.85;;;;;;;10.05;nan;102153.34;4966711;28;20042;-84
2021/10/07 08:56:46;;;;;;;6.80;5.28;;;;;;;10.24;nan;102155.22;4991263;28;20652;-84
2021/10/07 08:59:14;;;;;;;7.43;5.05;;;;;;;10.49;nan;102160.63;4975955;28;20046;-83
2021/10/07 09:01:47;;;;;;;8.88;5.78;;;;;;;10.74;nan;102153.66;4973709;28;20411;-83
2021/10/07 09:04:29;;;;;;;6.97;5.60;;;;;;;11.10;nan;102158.13;4953300;28;20533;-84
2021/10/07 09:07:05;;;;;;;6.57;4.80;;;;;;;11.52;nan;102159.94;4958089;28;20781;-83
2021/10/07 09:09:33;;;;;;;6.82;4.78;;;;;;;11.97;nan;102166.09;4988542;28;20068;-83
2021/10/07 09:12:04;;;;;;;6.53;3.97;;;;;;;12.17;nan;102161.59;4972103;28;20089;-84
2021/10/07 09:14:42;;;;;;;4.05;3.40;;;;;;;12.44;nan;102157.97;4958247;28;20053;-83
2021/10/07 09:17:10;;;;;;;6.10;3.35;;;;;;;12.67;nan;102152.56;4974997;28;20045;-84
2021/10/07 09:19:42;;;;;;;3.78;3.45;;;;;;;12.94;nan;102157.69;4959019;28;20111;-84
2021/10/07 09:22:18;;;;;;;4.75;3.30;;;;;;;13.13;nan;102155.81;4958923;28;20071;-84
2021/10/07 09:24:48;;;;;;;3.55;2.80;;;;;;;13.45;nan;102160.00;4975874;28;20049;-84
2021/10/07 09:27:22;;;;;;;4.93;2.65;;;;;;;13.70;nan;102161.53;4971563;28;20463;-84
2021/10/07 09:29:56;;;;;;;;;;;;;;;13.88;nan;102163.16;4944326;28;20046;-84
2021/10/07 09:32:28;;;;;;;4.47;2.60;;;;;;;14.26;nan;102159.19;4974611;28;19964;-84
2021/10/07 09:34:57;;;;;;;5.00;2.83;;;;;;;14.59;nan;102158.81;4976321;28;20109;-83
2021/10/07 09:37:29;;;;;;;4.60;2.70;;;;;;;14.70;nan;102157.78;4963416;28;20495;-83
2021/10/07 09:39:59;;;;;;;5.25;2.85;;;;;;;14.83;nan;102170.03;4972077;28;20050;-83
2021/10/07 09:42:32;;;;;;;2.97;2.60;;;;;;;14.78;nan;102164.75;4971442;28;20073;-84
2021/10/07 09:45:03;;;;;;;4.55;2.70;;;;;;;15.18;nan;102159.72;4973279;28;20072;-82
2021/10/07 09:47:32;;;;;;;3.45;2.17;;;;;;;15.40;nan;102162.06;4956412;28;20039;-82
2021/10/07 09:50:15;;;;;;;2.60;2.20;;;;;;;15.59;nan;102163.50;4967141;28;20050;-83
2021/10/07 09:52:43;;;;;;;2.92;1.70;;;;;;;15.64;nan;102167.00;4958938;28;20042;-82
2021/10/07 09:55:12;;;;;;;2.40;2.10;;;;;;;15.79;nan;102163.16;4976373;28;20052;-83
2021/10/07 09:57:56;;;;;;;3.53;1.90;;;;;;;15.98;nan;102166.41;4958437;28;20064;-82
2021/10/07 10:00:27;;;;;;;3.50;2.13;;;;;;;16.13;nan;102166.06;4991494;28;20046;-81
2021/10/07 10:02:57;;;;;;;2.28;1.88;;;;;;;16.18;nan;102158.00;4974470;28;20046;-83
2021/10/07 10:05:25;;;;;;;2.88;1.77;;;;;;;16.32;nan;102161.28;4963035;28;20080;-84
2021/10/07 10:07:52;;;;;;;3.13;2.55;;;;;;;16.25;nan;102165.84;4977825;28;20041;-85
2021/10/07 10:10:19;;;;;;;4.25;1.67;;;;;;;16.59;nan;102158.03;4979267;28;20042;-80
2021/10/07 10:12:46;;;;;;;2.65;1.90;;;;;;;16.63;nan;102157.94;4974481;28;20120;-83
2021/10/07 10:15:15;;;;;;;2.88;2.30;;;;;;;16.53;nan;102157.28;4979078;28;20042;-81
2021/10/07 10:17:41;;;;;;;2.72;1.70;;;;;;;16.56;nan;102157.19;4992942;28;20050;-82
2021/10/07 10:20:13;;;;;;;1.98;1.75;;;;;;;16.61;nan;102160.66;4962592;28;20458;-82
2021/10/07 10:22:40;;;;;;;4.53;1.92;;;;;;;16.69;nan;102158.72;4961933;28;20045;-82
2021/10/07 10:25:07;;;;;;;3.05;1.50;;;;;;;16.79;nan;102160.28;4964123;28;20512;-81
2021/10/07 10:27:47;;;;;;;2.30;1.83;;;;;;;16.85;nan;102157.47;4962303;28;20049;-82
2021/10/07 10:30:30;;;;;;;2.97;1.65;;;;;;;16.97;nan;102155.44;5003072;28;20069;-84
2021/10/07 10:32:59;;;;;;;2.33;1.50;;;;;;;17.17;nan;102164.75;4972536;28;20057;-84
2021/10/07 10:35:32;;;;;;;2.58;1.75;;;;;;;17.21;nan;102162.88;4953138;28;20053;-84
2021/10/07 10:38:00;;;;;;;2.35;1.92;;;;;;;17.32;nan;102166.19;4958593;28;20136;-82
2021/10/07 10:40:27;;;;;;;1.67;1.25;;;;;;;17.40;nan;102169.53;4962009;28;20053;-85
2021/10/07 10:43:19;;;;;;;1.90;1.48;;;;;;;17.29;nan;102163.56;5033390;23;20046;-82
2021/10/07 10:45:47;;;;;;;3.28;1.50;;;;;;;17.34;nan;102171.47;4980939;28;20609;-81
2021/10/07 10:48:42;;;;;;;2.92;1.40;;;;;;;17.42;nan;102169.50;4964262;28;20067;-83
2021/10/07 10:51:10;;;;;;;4.90;1.60;;;;;;;17.66;nan;102174.22;5000055;28;20056;-84
2021/10/07 10:53:58;;;;;;;4.90;1.60;;;;;;;17.20;nan;102168.25;4991383;28;20077;-82
2021/10/07 10:56:29;;;;;;;3.22;1.50;;;;;;;17.34;nan;102172.34;4983367;28;20466;-81
2021/10/07 10:59:21;;;;;;;1.83;1.23;;;;;;;17.54;nan;102170.97;4979531;28;20042;-82
2021/10/07 11:02:16;;;;;;;2.72;1.70;;;;;;;17.36;nan;102167.84;4965764;28;20034;-82
2021/10/07 11:04:48;;;;;;;1.58;1.25;;;;;;;17.60;nan;102174.38;4976559;28;20144;-81
2021/10/07 11:07:15;;;;;;;2.10;1.40;;;;;;;17.78;nan;102173.03;4994925;28;20068;-82
2021/10/07 11:10:28;;;;;;;2.35;1.35;;;;;;;17.60;nan;102173.50;4991641;28;20171;-82
2021/10/07 11:12:57;;;;;;;3.33;1.40;;;;;;;17.71;nan;102176.78;4933011;29;20055;-81
2021/10/07 11:15:26;;;;;;;17.15;12.75;;;;;;;17.88;nan;102173.66;4902060;29;20480;-82
2021/10/07 11:17:53;;;;;;;2.42;1.40;;;;;;;18.01;nan;102180.44;4931157;28;20058;-83
2021/10/07 11:20:29;;;;;;;2.13;1.60;;;;;;;18.03;nan;102175.06;5010092;28;20506;-81
2021/10/07 11:23:05;;;;;;;3.05;2.08;;;;;;;17.98;nan;102180.53;5012664;28;20076;-82
2021/10/07 11:25:34;;;;;;;1.48;1.20;;;;;;;17.72;nan;102183.88;5013574;28;20079;-81
2021/10/07 11:28:01;;;;;;;2.63;1.50;;;;;;;17.95;nan;102172.59;4974674;28;20445;-80
2021/10/07 11:30:30;;;;;;;2.75;1.45;;;;;;;17.96;nan;102177.88;5004569;28;20095;-82
2021/10/07 11:32:59;;;;;;;2.97;1.70;;;;;;;18.08;nan;102174.03;4961371;28;20034;-81
2021/10/07 11:35:26;;;;;;;2.75;1.73;;;;;;;17.98;nan;102180.53;4979664;28;20038;-81
2021/10/07 11:37:57;;;;;;;1.73;1.13;;;;;;;17.99;nan;102175.16;4973497;28;20061;-82
2021/10/07 11:40:25;;;;;;;1.90;1.23;;;;;;;18.03;nan;102180.41;4975562;28;20116;-80
2021/10/07 11:42:57;;;;;;;2.60;1.20;;;;;;;18.04;nan;102169.66;4989358;28;20071;-82
2021/10/07 11:45:28;;;;;;;2.00;1.30;;;;;;;18.13;nan;102171.19;4976472;28;20043;-83
2021/10/07 11:47:55;;;;;;;1.98;1.40;;;;;;;18.19;nan;102163.03;4976816;28;20042;-84
2021/10/07 11:50:24;;;;;;;3.00;1.52;;;;;;;18.16;nan;102171.09;4979068;28;20129;-82
2021/10/07 11:52:54;;;;;;;1.98;1.30;;;;;;;18.13;nan;102172.09;4978874;28;20071;-82
2021/10/07 11:55:23;;;;;;;3.78;1.30;;;;;;;18.13;nan;102173.88;4991795;28;20566;-83
2021/10/07 11:57:56;;;;;;;1.75;1.20;;;;;;;18.11;nan;102167.69;4980610;28;20045;-82
2021/10/07 12:00:41;;;;;;;2.10;1.30;;;;;;;18.11;nan;102175.72;5013889;28;20422;-82